Terminal Aerodrome Forecast
Issued by NWS

Home | Current Version | Previous Version | Graphics & Text | Print | Product List | Glossary On
Versions: 1 2 3 4 5 6 7 8 9 10 11 12 13 14 15 16 17 18 19
271
FTUS43 KIWX 261120
TAFSBN
TAF
KSBN 261120Z 2612/2712 13009KT 5SM -RA BR BKN006 OVC080
     FM261800 20009KT 6SM -SHRA BR BKN030
     FM270300 23006KT 2SM BR OVC008=

USA.gov is the U.S. government's official web portal to all federal, state and local government web resources and services.